• Join FlightAware (Why Join?)
  • Login
  • US Flag 
04:56PM EST


 

Airport Tracker/Info


-or-


 

Live Flight TrackerFlight Track Log ✈ N960DL ✈ 05-May-2013 ✈ KMSP - KOMA

Flight Track Log - Related Links

Times and Time Zones

All times are in EDT time to prevent confusion due to time zone crossing. See the N960DL flight status page for this flight to view local times or setup timezone preferences in your user account.

Time Position Orientation Groundspeed Altitude Reporting Facility
EDT Latitude Longitude Course Direction KTS MPH feet Rate Location/Type
08:18AM 44.8897 -93.3050 203° Southwest 230 265 4,500  Level Minneapolis Center
08:20AM 44.5877 -93.4556 202° Southwest  Level Estimated
08:20AM 44.8267 -93.3556 210° Southwest 273 314 8,400  Level Minneapolis Center
08:21AM 44.4896 -93.5330 198° South  Level Estimated
08:21AM 44.7533 -93.4000 203° Southwest 293 337 11,800  Level Minneapolis Center
08:22AM 44.3913 -93.6101 200° South  Level Estimated
08:22AM 44.6636 -93.4639 207° Southwest 371 427 14,200  Level Minneapolis Center
08:23AM 44.2931 -93.6870 197° South  Level Estimated
08:23AM 44.5647 -93.5306 206° Southwest 400 460 17,800  Level Minneapolis Center
08:24AM 44.1947 -93.7636 203° Southwest  Level Estimated
08:24AM 44.4653 -93.5961 205° Southwest 399 459 20,700  Level Minneapolis Center
08:25AM 44.3611 -93.6708 207° Southwest 417 480 22,800 2,640 Climbing Minneapolis Center
08:26AM 44.2328 -93.7772 211° Southwest 444 511 26,100 2,700 Climbing Minneapolis Center
08:27AM 44.1475 -93.8458 210° Southwest 445 512 28,300 1,860 Climbing Minneapolis Center
08:28AM 44.0214 -93.9456 210° Southwest 439 505 30,000 780 Climbing Minneapolis Center
08:29AM 43.9156 -94.0264 209° Southwest 436 502 30,000  Level Minneapolis Center
08:30AM 43.8117 -94.1061 209° Southwest 430 495 30,000  Level Minneapolis Center
08:31AM 43.6856 -94.2044 209° Southwest 434 499 30,000  Level Minneapolis Center
08:32AM 43.5681 -94.2278 188° South 430 495 30,000  Level Minneapolis Center
08:33AM 43.4444 -94.2361 183° South 433 498 30,000  Level Minneapolis Center
08:34AM 43.3019 -94.2453 183° South 435 501 30,000  Level Minneapolis Center
08:35AM 43.1622 -94.2539 183° South 432 497 30,000  Level Minneapolis Center
08:36AM 43.0419 -94.2631 183° South 432 497 30,000  Level Minneapolis Center
08:37AM 42.9439 -94.2675 182° South 431 496 30,000  Level Minneapolis Center
08:38AM 42.7994 -94.2772 183° South 435 501 30,000  Level Minneapolis Center
08:39AM 42.6806 -94.2867 183° South 433 498 30,000  Level Minneapolis Center
08:40AM 42.5633 -94.3256 194° South 445 512 30,000  Level Minneapolis Center
08:41AM 42.4672 -94.4011 210° Southwest 442 509 30,000  Level Minneapolis Center
08:42AM 42.3603 -94.4811 209° Southwest 438 504 30,000  Level Minneapolis Center
08:43AM 42.2325 -94.5789 210° Southwest 439 505 30,000  Level Minneapolis Center
08:44AM 42.1253 -94.6603 209° Southwest 441 507 30,000 -1,500 Level Minneapolis Center
08:45AM 42.0194 -94.7408 209° Southwest 437 503 27,000 -2,880 Descending Minneapolis Center
08:46AM 41.9153 -94.8197 209° Southwest 430 495 24,200 -2,700 Descending Minneapolis Center
08:47AM 41.8136 -94.8961 209° Southwest 419 482 21,600 -2,820 Descending Minneapolis Center
08:48AM 41.7756 -94.9519 228° Southwest 417 480 20,100 -2,880 Descending Minneapolis Center
08:48AM 41.7181 -94.9694 193° South 401 461 18,700 -2,520 Descending Minneapolis Center
08:49AM 41.6722 -95.0269 223° Southwest 392 451 17,300 -1,740 Descending Minneapolis Center
08:50AM 41.6236 -95.0403 192° South 390 449 16,600 -1,320 Descending Minneapolis Center
08:50AM 41.5789 -95.0950 222° Southwest 381 438 16,000 -720 Descending Minneapolis Center
08:51AM 41.5161 -95.1197 196° South 371 427 15,900 -720 Descending Minneapolis Center
08:51AM 41.4992 -95.1525 235° Southwest 313 360 15,300 -1,620 Descending Minneapolis Center
08:52AM 41.4667 -95.2061 231° Southwest 327 376 14,300 -1,800 Descending Minneapolis Center
08:52AM 41.4583 -95.2522 256° West 299 344 13,500 -2,100 Descending Minneapolis Center
08:53AM 41.4197 -95.3008 223° Southwest 312 359 12,200 -2,220 Descending Minneapolis Center
08:53AM 41.4008 -95.3569 246° West 302 348 11,100 -2,220 Descending Minneapolis Center
08:54AM 41.3733 -95.3911 223° Southwest 304 350 10,000 -2,280 Descending Minneapolis Center
08:54AM 41.3522 -95.4408 241° Southwest 288 331 8,800 -2,220 Descending Minneapolis Center
08:55AM 41.3208 -95.4728 217° Southwest 296 341 7,800 -2,160 Descending Minneapolis Center
08:55AM 41.3003 -95.5083 232° Southwest 279 321 6,900 -2,220 Descending Minneapolis Center
08:56AM 41.2672 -95.5433 219° Southwest 282 325 5,600 -2,280 Descending Minneapolis Center
08:56AM 41.2467 -95.5786 232° Southwest 274 315 4,600 -1,620 Descending Minneapolis Center
08:57AM 41.2136 -95.6147 219° Southwest 276 318 4,000 -720 Descending Minneapolis Center
08:57AM 41.1950 -95.6486 234° Southwest 264 304 3,900 -300 Descending Minneapolis Center
08:58AM 41.1672 -95.6869 226° Southwest 266 306 3,700 -780 Descending Minneapolis Center
08:58AM 41.1583 -95.7278 254° West 219 252 3,100 -720 Descending Minneapolis Center
08:59AM 41.1647 -95.7575 286° West 230 265 3,000 -120 Descending Minneapolis Center
08:59AM 41.1808 -95.7803 313° West 172 198 3,000  Level Minneapolis Center